Time;durP1;ratioP1;P1;durP2;ratioP2;P2;SDS_P1;SDS_P2;PMS_P1;PMS_P2;Temp;Humidity;BMP_temperature;BMP_pressure;BME280_temperature;BME280_humidity;BME280_pressure;Samples;Min_cycle;Max_cycle;Signal;HPM_P1;HPM_P2
2023/04/04 00:01:59;;;;;;;0.50;0.50;;;0.70;99.90;;;;;;4954527;28;20571;-77
2023/04/04 00:04:26;;;;;;;0.50;0.50;;;0.60;99.90;;;;;;4954095;29;20255;-76
2023/04/04 00:06:53;;;;;;;0.50;0.50;;;0.60;99.90;;;;;;4954294;29;20240;-77
2023/04/04 00:09:21;;;;;;;0.50;0.50;;;0.50;99.90;;;;;;4954265;29;20693;-77
2023/04/04 00:11:48;;;;;;;0.50;0.50;;;0.50;99.90;;;;;;4954149;28;20226;-77
2023/04/04 00:14:15;;;;;;;0.50;0.50;;;0.50;99.90;;;;;;4954168;29;20202;-77
2023/04/04 00:16:41;;;;;;;0.50;0.50;;;0.40;99.90;;;;;;4954154;29;20202;-76
2023/04/04 00:19:10;;;;;;;0.50;0.50;;;0.40;99.90;;;;;;4953915;29;20202;-77
2023/04/04 00:21:37;;;;;;;0.50;0.50;;;0.40;99.90;;;;;;4954242;28;20201;-77
2023/04/04 00:24:04;;;;;;;0.50;0.50;;;0.40;99.90;;;;;;4953607;29;20202;-75
2023/04/04 00:26:32;;;;;;;0.50;0.40;;;0.40;99.90;;;;;;4954190;29;20589;-75
2023/04/04 00:28:59;;;;;;;0.50;0.50;;;0.40;99.90;;;;;;4954150;29;20822;-77
2023/04/04 00:31:26;;;;;;;0.50;0.50;;;0.40;99.90;;;;;;4953792;28;20233;-76
2023/04/04 00:33:53;;;;;;;0.88;0.88;;;0.40;99.90;;;;;;4954138;29;20198;-77
2023/04/04 00:36:20;;;;;;;0.50;0.50;;;0.40;99.90;;;;;;4953558;29;20208;-77
2023/04/04 00:38:47;;;;;;;0.50;0.40;;;0.30;99.90;;;;;;4953916;29;20289;-77
2023/04/04 00:41:14;;;;;;;0.50;0.50;;;0.30;99.90;;;;;;4953854;29;20692;-77
2023/04/04 00:43:42;;;;;;;0.73;0.73;;;0.30;99.90;;;;;;4953927;28;20597;-77
2023/04/04 00:46:13;;;;;;;0.50;0.50;;;0.20;99.90;;;;;;4952762;28;20289;-77
2023/04/04 00:48:41;;;;;;;0.50;0.50;;;0.20;99.90;;;;;;4953731;29;20222;-76
2023/04/04 00:51:07;;;;;;;0.50;0.50;;;0.10;99.90;;;;;;4953464;29;20661;-77
2023/04/04 00:53:35;;;;;;;0.50;0.50;;;0.20;99.90;;;;;;4953577;28;20597;-77
2023/04/04 00:56:02;;;;;;;0.50;0.50;;;0.10;99.90;;;;;;4953453;28;20201;-76
2023/04/04 00:58:29;;;;;;;0.50;0.50;;;0.20;99.90;;;;;;4953452;29;20201;-76
2023/04/04 01:00:59;;;;;;;0.50;0.50;;;0.20;99.90;;;;;;4953605;29;20201;-77
2023/04/04 01:03:26;;;;;;;0.50;0.47;;;0.10;99.90;;;;;;4953196;28;20227;-75
2023/04/04 01:05:54;;;;;;;0.50;0.50;;;0.10;99.90;;;;;;4953206;29;20682;-77
2023/04/04 01:08:24;;;;;;;0.50;0.50;;;0.00;99.90;;;;;;4953248;29;20214;-76
2023/04/04 01:10:51;;;;;;;0.50;0.50;;;0.00;99.90;;;;;;4953672;29;20608;-77
2023/04/04 01:13:18;;;;;;;0.50;0.50;;;0.00;99.90;;;;;;4952953;28;20705;-77
2023/04/04 01:15:45;;;;;;;0.50;0.50;;;0.00;99.90;;;;;;4953104;29;20229;-77
2023/04/04 01:18:16;;;;;;;1.20;1.05;;;0.00;99.90;;;;;;4953168;29;20205;-76
2023/04/04 01:20:51;;;;;;;0.50;0.50;;;0.00;99.90;;;;;;4953373;29;20684;-77
2023/04/04 01:23:21;;;;;;;0.50;0.50;;;0.00;99.90;;;;;;4952949;28;20708;-77
2023/04/04 01:25:49;;;;;;;0.50;0.50;;;-0.10;99.90;;;;;;4952829;29;20228;-77
2023/04/04 01:28:16;;;;;;;0.50;0.50;;;-0.10;99.90;;;;;;4952823;29;20585;-77
2023/04/04 01:30:45;;;;;;;0.50;0.40;;;-0.10;99.90;;;;;;4953399;29;20204;-77
2023/04/04 01:33:20;;;;;;;0.60;0.60;;;-0.10;99.90;;;;;;4953010;28;20273;-77
2023/04/04 01:35:57;;;;;;;0.50;0.50;;;-0.20;99.90;;;;;;4953119;29;20205;-77
2023/04/04 01:38:29;;;;;;;0.50;0.50;;;-0.20;99.90;;;;;;4952989;29;20198;-77
2023/04/04 01:41:02;;;;;;;0.50;0.50;;;-0.20;99.90;;;;;;4953295;28;20261;-77
2023/04/04 01:43:30;;;;;;;0.50;0.50;;;-0.30;99.90;;;;;;4953249;28;20221;-76
2023/04/04 01:45:58;;;;;;;0.50;0.50;;;-0.30;99.90;;;;;;4952898;29;20557;-76
2023/04/04 01:48:26;;;;;;;0.50;0.40;;;-0.30;99.90;;;;;;4952846;29;20229;-77
2023/04/04 01:50:53;;;;;;;0.50;0.50;;;-0.30;99.90;;;;;;4953150;29;20293;-77
2023/04/04 01:53:20;;;;;;;0.50;0.50;;;-0.30;99.90;;;;;;4952628;28;20337;-77
2023/04/04 01:55:46;;;;;;;0.50;0.50;;;-0.40;99.90;;;;;;4953047;29;20297;-77
2023/04/04 01:58:15;;;;;;;0.50;0.47;;;-0.40;99.90;;;;;;4954708;28;20298;-77
2023/04/04 02:00:41;;;;;;;0.50;0.50;;;-0.40;99.90;;;;;;4956974;29;20209;-76
2023/04/04 02:03:08;;;;;;;0.50;0.50;;;-0.40;99.90;;;;;;4956743;28;20222;-77
2023/04/04 02:05:35;;;;;;;0.50;0.50;;;-0.40;99.90;;;;;;4948721;29;20202;-76
2023/04/04 02:08:02;;;;;;;0.50;0.50;;;-0.40;99.90;;;;;;4956599;29;20219;-77
2023/04/04 02:10:29;;;;;;;0.50;0.50;;;-0.50;99.90;;;;;;4956782;29;20261;-77
2023/04/04 02:12:56;;;;;;;0.50;0.40;;;-0.50;99.90;;;;;;4956410;28;20226;-77
2023/04/04 02:15:25;;;;;;;0.50;0.45;;;-0.50;99.90;;;;;;4956121;29;20669;-77
2023/04/04 02:17:52;;;;;;;0.50;0.43;;;-0.50;99.90;;;;;;4956873;29;20206;-76
2023/04/04 02:20:19;;;;;;;0.68;0.68;;;-0.50;99.90;;;;;;4956730;29;20684;-77
2023/04/04 02:22:51;;;;;;;0.50;0.50;;;-0.60;99.90;;;;;;4956602;28;20222;-77
2023/04/04 02:25:18;;;;;;;0.50;0.40;;;-0.60;99.90;;;;;;4956170;29;20262;-76
2023/04/04 02:27:45;;;;;;;0.50;0.50;;;-0.60;99.90;;;;;;4956429;29;20225;-76
2023/04/04 02:30:13;;;;;;;0.50;0.50;;;-0.60;99.90;;;;;;4956228;29;20203;-76
2023/04/04 02:32:41;;;;;;;0.50;0.50;;;-0.50;99.90;;;;;;4956276;28;20589;-77
2023/04/04 02:35:08;;;;;;;0.50;0.50;;;-0.60;99.90;;;;;;4955980;29;20227;-76
2023/04/04 02:37:35;;;;;;;0.50;0.50;;;-0.60;99.90;;;;;;4955910;29;20194;-76
2023/04/04 02:40:02;;;;;;;0.50;0.50;;;-0.70;99.90;;;;;;4956244;29;20198;-77
2023/04/04 02:42:29;;;;;;;0.50;0.47;;;-0.70;99.90;;;;;;4955966;28;20589;-77
2023/04/04 02:44:56;;;;;;;0.50;0.50;;;-0.70;99.90;;;;;;4955617;29;20204;-76
2023/04/04 02:47:23;;;;;;;0.50;0.50;;;-0.80;99.90;;;;;;4955942;29;20209;-76
2023/04/04 02:49:51;;;;;;;0.50;0.50;;;-0.80;99.90;;;;;;4956183;29;20194;-77
2023/04/04 02:52:18;;;;;;;0.50;0.47;;;-0.80;99.90;;;;;;4955648;28;20228;-77
2023/04/04 02:54:45;;;;;;;0.50;0.50;;;-0.80;99.90;;;;;;4955721;29;20198;-76
2023/04/04 02:57:11;;;;;;;0.50;0.50;;;-0.80;99.90;;;;;;4956451;29;20206;-76
2023/04/04 02:59:38;;;;;;;0.50;0.50;;;-0.90;99.90;;;;;;4955660;29;20202;-76
2023/04/04 03:02:05;;;;;;;0.50;0.50;;;-0.90;99.90;;;;;;4955729;28;20312;-77
2023/04/04 03:04:32;;;;;;;0.50;0.50;;;-0.90;99.90;;;;;;4955382;29;20613;-77
2023/04/04 03:07:00;;;;;;;0.50;0.50;;;-0.90;99.90;;;;;;4955825;29;20194;-76
2023/04/04 03:09:27;;;;;;;0.50;0.50;;;-0.90;99.90;;;;;;4954555;28;20214;-76
2023/04/04 03:11:54;;;;;;;0.50;0.40;;;-0.90;99.90;;;;;;4955056;28;20218;-76
2023/04/04 03:14:21;;;;;;;0.50;0.50;;;-0.90;99.90;;;;;;4955182;29;20204;-76
2023/04/04 03:16:48;;;;;;;0.50;0.40;;;-0.90;99.90;;;;;;4955397;29;20289;-77
2023/04/04 03:19:15;;;;;;;0.60;0.60;;;-1.00;99.90;;;;;;4955362;29;20296;-76
2023/04/04 03:21:42;;;;;;;1.90;1.80;;;-1.00;99.90;;;;;;4955348;28;20198;-77
2023/04/04 03:24:11;;;;;;;0.50;0.43;;;-1.00;99.90;;;;;;4955172;29;20194;-76
2023/04/04 03:26:38;;;;;;;0.50;0.50;;;-1.00;99.90;;;;;;4955135;28;20285;-76
2023/04/04 03:29:05;;;;;;;0.50;0.40;;;-1.00;99.90;;;;;;4955258;29;20214;-77
2023/04/04 03:31:32;;;;;;;0.50;0.50;;;-1.00;99.90;;;;;;4955114;28;20265;-76
2023/04/04 03:33:59;;;;;;;0.50;0.50;;;-1.00;99.90;;;;;;4955153;29;20577;-77
2023/04/04 03:36:26;;;;;;;1.13;1.05;;;-1.00;99.90;;;;;;4954613;29;20202;-76
2023/04/04 03:38:53;;;;;;;0.50;0.50;;;-1.00;99.90;;;;;;4955184;29;20288;-77
2023/04/04 03:41:21;;;;;;;0.50;0.45;;;-1.00;99.90;;;;;;4954829;29;20198;-77
2023/04/04 03:43:48;;;;;;;0.50;0.50;;;-1.00;99.90;;;;;;4954977;28;20591;-76
2023/04/04 03:46:15;;;;;;;0.50;0.50;;;-1.00;99.90;;;;;;4954799;29;20605;-77
2023/04/04 03:48:42;;;;;;;0.50;0.50;;;-1.00;99.90;;;;;;4947193;29;20694;-78
2023/04/04 03:51:08;;;;;;;0.50;0.50;;;-1.00;99.90;;;;;;4955062;29;20202;-77
2023/04/04 03:53:36;;;;;;;0.50;0.50;;;-1.00;99.90;;;;;;4954433;28;20237;-77
2023/04/04 03:56:04;;;;;;;0.50;0.40;;;-1.10;99.90;;;;;;4954187;29;20206;-77
2023/04/04 03:58:35;;;;;;;0.50;0.50;;;-1.10;99.90;;;;;;4954525;29;20206;-77
2023/04/04 04:01:01;;;;;;;0.50;0.50;;;-1.10;99.90;;;;;;4955099;29;20292;-75
2023/04/04 04:03:28;;;;;;;0.50;0.50;;;-1.10;99.90;;;;;;4954772;28;20230;-76
2023/04/04 04:05:55;;;;;;;0.50;0.50;;;-1.10;99.90;;;;;;4954408;29;20233;-77
2023/04/04 04:08:22;;;;;;;0.50;0.50;;;-1.10;99.90;;;;;;4954705;29;20237;-76
2023/04/04 04:10:48;;;;;;;2.15;2.05;;;-1.10;99.90;;;;;;4955038;29;20209;-77
2023/04/04 04:13:15;;;;;;;0.50;0.50;;;-1.10;99.90;;;;;;4954467;28;20605;-77
2023/04/04 04:15:43;;;;;;;0.50;0.50;;;-1.20;99.90;;;;;;4954483;29;20694;-76
2023/04/04 04:18:10;;;;;;;0.50;0.50;;;-1.20;99.90;;;;;;4954924;29;20823;-76
2023/04/04 04:20:37;;;;;;;0.50;0.50;;;-1.20;99.90;;;;;;4954616;28;20232;-77
2023/04/04 04:23:04;;;;;;;0.50;0.50;;;-1.20;99.90;;;;;;4954597;28;20308;-77
2023/04/04 04:25:30;;;;;;;0.50;0.50;;;-1.20;99.90;;;;;;4954032;29;20237;-75
2023/04/04 04:27:57;;;;;;;0.50;0.40;;;-1.20;99.90;;;;;;4954478;29;20194;-76
2023/04/04 04:30:24;;;;;;;0.50;0.40;;;-1.20;99.90;;;;;;4954160;29;20194;-78
2023/04/04 04:32:52;;;;;;;0.50;0.50;;;-1.20;99.90;;;;;;4954259;28;20705;-76
2023/04/04 04:35:19;;;;;;;0.50;0.50;;;-1.20;99.90;;;;;;4953773;29;20701;-77
2023/04/04 04:37:46;;;;;;;0.50;0.47;;;-1.20;99.90;;;;;;4954210;29;20202;-77
2023/04/04 04:40:13;;;;;;;0.50;0.50;;;-1.20;99.90;;;;;;4954480;29;20201;-77
2023/04/04 04:42:44;;;;;;;0.50;0.50;;;-1.20;99.90;;;;;;4953855;28;20593;-77
2023/04/04 04:45:11;;;;;;;0.50;0.40;;;-1.20;99.90;;;;;;4954079;29;20202;-77
2023/04/04 04:47:38;;;;;;;0.50;0.47;;;-1.20;99.90;;;;;;4954027;29;20229;-76
2023/04/04 04:50:07;;;;;;;0.50;0.50;;;-1.20;99.90;;;;;;4954023;29;20240;-77
2023/04/04 04:52:36;;;;;;;0.50;0.50;;;-1.20;99.90;;;;;;4953411;28;20230;-76
2023/04/04 04:55:03;;;;;;;0.50;0.50;;;-1.30;99.90;;;;;;4953612;29;20208;-77
2023/04/04 04:57:30;;;;;;;0.50;0.50;;;-1.30;99.90;;;;;;4953760;29;20798;-77
2023/04/04 04:59:57;;;;;;;0.50;0.50;;;-1.30;99.90;;;;;;4954347;28;20234;-78
2023/04/04 05:02:24;;;;;;;0.50;0.45;;;-1.40;99.90;;;;;;4953440;28;20220;-77
2023/04/04 05:04:50;;;;;;;0.50;0.50;;;-1.40;99.90;;;;;;4953470;29;20198;-77
2023/04/04 05:07:19;;;;;;;0.50;0.50;;;-1.40;99.90;;;;;;4953762;29;20691;-77
2023/04/04 05:09:45;;;;;;;0.50;0.50;;;-1.40;99.90;;;;;;4945920;29;20581;-77
2023/04/04 05:12:12;;;;;;;0.50;0.50;;;-1.40;99.90;;;;;;4953554;28;20214;-77
2023/04/04 05:14:39;;;;;;;0.50;0.50;;;-1.30;99.90;;;;;;4953376;29;20206;-77
2023/04/04 05:17:06;;;;;;;0.50;0.50;;;-1.30;99.90;;;;;;4953721;29;20194;-76
2023/04/04 05:19:32;;;;;;;0.50;0.50;;;-1.30;99.90;;;;;;4953288;29;20285;-76
2023/04/04 05:21:59;;;;;;;0.50;0.50;;;-1.30;99.90;;;;;;4954024;28;20221;-77
2023/04/04 05:24:27;;;;;;;0.60;0.60;;;-1.30;99.90;;;;;;4953651;29;20232;-75
2023/04/04 05:26:54;;;;;;;0.50;0.50;;;-1.30;99.90;;;;;;4953769;29;20205;-76
2023/04/04 05:29:21;;;;;;;0.50;0.50;;;-1.30;99.90;;;;;;4953538;29;20245;-76
2023/04/04 05:31:48;;;;;;;0.50;0.50;;;-1.20;99.90;;;;;;4953914;28;20218;-76
2023/04/04 05:34:14;;;;;;;0.50;0.40;;;-1.10;99.90;;;;;;4953273;29;20200;-77
2023/04/04 05:36:41;;;;;;;0.50;0.47;;;-1.10;99.90;;;;;;4952918;29;20205;-76
2023/04/04 05:39:08;;;;;;;0.50;0.47;;;-1.10;99.90;;;;;;4953283;29;20195;-76
2023/04/04 05:41:36;;;;;;;0.50;0.50;;;-1.10;99.90;;;;;;4952685;28;20294;-77
2023/04/04 05:44:03;;;;;;;0.50;0.50;;;-1.00;99.90;;;;;;4952783;29;20194;-76
2023/04/04 05:46:30;;;;;;;0.50;0.50;;;-1.00;99.90;;;;;;4952729;29;20201;-76
2023/04/04 05:48:57;;;;;;;0.50;0.50;;;-1.00;99.90;;;;;;4952757;29;20225;-77
2023/04/04 05:51:23;;;;;;;0.50;0.40;;;-0.80;99.90;;;;;;4952866;29;20206;-77
2023/04/04 05:53:50;;;;;;;0.50;0.40;;;-0.60;99.90;;;;;;4952874;29;20225;-76
2023/04/04 05:56:17;;;;;;;0.50;0.50;;;-0.50;99.90;;;;;;4952850;29;20224;-77
2023/04/04 05:58:45;;;;;;;0.50;0.50;;;-0.20;99.90;;;;;;4952795;29;20194;-76
2023/04/04 06:01:12;;;;;;;0.50;0.50;;;0.00;99.90;;;;;;4952781;29;20662;-77
2023/04/04 06:03:39;;;;;;;0.50;0.50;;;0.50;99.90;;;;;;4952544;28;20225;-77
2023/04/04 06:06:06;;;;;;;0.50;0.40;;;1.30;99.90;;;;;;4953019;29;20570;-77
2023/04/04 06:08:32;;;;;;;0.50;0.40;;;2.30;99.90;;;;;;4952828;29;20551;-76
2023/04/04 06:10:59;;;;;;;0.50;0.40;;;3.50;99.90;;;;;;4953269;29;20221;-77
2023/04/04 06:13:26;;;;;;;0.50;0.40;;;4.90;99.90;;;;;;4952278;28;20859;-76
2023/04/04 06:15:54;;;;;;;0.50;0.40;;;6.20;99.90;;;;;;4952668;29;20622;-77
2023/04/04 06:18:21;;;;;;;0.50;0.40;;;8.00;99.90;;;;;;4952737;29;20198;-75
2023/04/04 06:20:48;;;;;;;1.70;1.60;;;9.80;99.90;;;;;;4952471;29;20206;-76
2023/04/04 06:23:14;;;;;;;0.50;0.40;;;11.40;99.90;;;;;;4952786;28;20677;-76
2023/04/04 06:25:41;;;;;;;0.90;0.90;;;12.80;99.90;;;;;;4952279;29;20577;-76
2023/04/04 06:28:08;;;;;;;0.77;0.77;;;13.60;90.90;;;;;;4952656;29;20445;-75
2023/04/04 06:30:37;;;;;;;0.50;0.40;;;13.90;77.10;;;;;;4952457;29;20592;-76
2023/04/04 06:33:06;;;;;;;0.50;0.40;;;14.60;75.90;;;;;;4952496;28;20505;-75
2023/04/04 06:35:32;;;;;;;0.50;0.40;;;15.20;71.60;;;;;;4952085;29;20456;-73
2023/04/04 06:37:59;;;;;;;2.57;2.47;;;15.90;68.00;;;;;;4952645;29;20446;-75
2023/04/04 06:40:26;;;;;;;0.50;0.40;;;16.40;62.70;;;;;;4952192;29;20450;-75
2023/04/04 06:42:56;;;;;;;1.00;1.00;;;17.10;63.50;;;;;;4952339;28;20536;-75
2023/04/04 06:45:23;;;;;;;0.50;0.30;;;17.80;60.30;;;;;;4954225;28;20834;-76
2023/04/04 06:47:52;;;;;;;0.67;0.63;;;18.40;59.90;;;;;;4955781;29;21008;-76
2023/04/04 06:50:21;;;;;;;0.50;0.30;;;19.20;58.90;;;;;;4955483;29;20474;-77
2023/04/04 06:52:48;;;;;;;0.50;0.40;;;19.80;55.90;;;;;;4955415;28;20496;-77
2023/04/04 06:55:15;;;;;;;0.50;0.30;;;20.00;52.90;;;;;;4955379;29;20442;-75
2023/04/04 06:57:42;;;;;;;0.50;0.37;;;20.30;51.40;;;;;;4956533;28;20445;-75
2023/04/04 07:00:10;;;;;;;0.50;0.40;;;20.10;50.00;;;;;;4956511;29;20441;-76
2023/04/04 07:02:36;;;;;;;0.50;0.40;;;19.90;51.40;;;;;;4955740;28;20862;-76
2023/04/04 07:05:04;;;;;;;0.50;0.40;;;20.30;50.10;;;;;;4955512;29;20477;-76
2023/04/04 07:07:32;;;;;;;0.80;0.80;;;20.60;49.30;;;;;;4948729;28;20520;-75
2023/04/04 07:09:58;;;;;;;0.50;0.40;;;20.50;48.70;;;;;;4955539;29;20484;-76
2023/04/04 07:12:25;;;;;;;1.17;1.17;;;20.40;49.30;;;;;;4955381;28;20461;-75
2023/04/04 07:14:52;;;;;;;0.50;0.30;;;20.90;50.30;;;;;;4955538;29;20460;-77
2023/04/04 07:17:19;;;;;;;0.80;0.60;;;21.90;49.50;;;;;;4955744;29;20450;-75
2023/04/04 07:19:45;;;;;;;0.93;0.93;;;22.70;47.80;;;;;;4954363;28;20446;-76
2023/04/04 07:22:13;;;;;;;0.50;0.37;;;22.50;46.30;;;;;;4953523;28;20473;-76
2023/04/04 07:24:41;;;;;;;0.50;0.40;;;22.80;45.80;;;;;;4954152;29;20485;-77
2023/04/04 07:27:08;;;;;;;0.50;0.40;;;23.20;45.80;;;;;;4955020;29;20449;-76
2023/04/04 07:29:35;;;;;;;0.50;0.30;;;24.40;47.30;;;;;;4955001;29;20485;-76
2023/04/04 07:32:02;;;;;;;0.50;0.50;;;24.40;44.40;;;;;;4954915;28;20510;-77
2023/04/04 07:34:29;;;;;;;0.50;0.30;;;24.30;42.50;;;;;;4954732;29;20449;-75
2023/04/04 07:36:56;;;;;;;0.50;0.40;;;24.50;43.40;;;;;;4949666;29;20469;-77
2023/04/04 07:39:23;;;;;;;0.50;0.30;;;24.80;43.10;;;;;;4954652;29;20810;-76
2023/04/04 07:41:51;;;;;;;0.50;0.40;;;24.90;41.90;;;;;;4954179;28;20462;-76
2023/04/04 07:44:17;;;;;;;0.50;0.30;;;24.90;40.60;;;;;;4954630;29;20456;-76
2023/04/04 07:46:44;;;;;;;0.50;0.40;;;25.00;40.50;;;;;;4954543;29;20950;-75
2023/04/04 07:49:11;;;;;;;0.50;0.50;;;24.40;40.60;;;;;;4954709;29;20487;-75
2023/04/04 07:51:38;;;;;;;0.83;0.83;;;24.10;41.00;;;;;;4954094;28;20996;-75
2023/04/04 07:54:06;;;;;;;0.50;0.40;;;24.90;41.80;;;;;;4954270;29;20446;-75
2023/04/04 07:56:32;;;;;;;0.50;0.40;;;24.40;39.20;;;;;;4953570;28;20521;-74
2023/04/04 07:59:01;;;;;;;0.50;0.40;;;24.40;39.20;;;;;;4954136;29;20453;-76
2023/04/04 08:01:27;;;;;;;0.50;0.50;;;23.80;39.00;;;;;;4953871;28;20459;-75
2023/04/04 08:03:55;;;;;;;0.50;0.50;;;23.70;38.80;;;;;;4953969;29;20489;-75
2023/04/04 08:06:22;;;;;;;0.50;0.40;;;23.80;39.20;;;;;;4954290;29;20933;-75
2023/04/04 08:08:49;;;;;;;0.50;0.30;;;22.90;39.40;;;;;;4953926;29;20452;-75
2023/04/04 08:11:16;;;;;;;0.50;0.37;;;23.10;40.50;;;;;;4953931;29;20441;-75
2023/04/04 08:13:43;;;;;;;0.50;0.40;;;23.30;41.30;;;;;;4953551;28;20461;-75
2023/04/04 08:16:11;;;;;;;0.80;0.80;;;23.70;41.10;;;;;;4953679;29;20448;-75
2023/04/04 08:18:38;;;;;;;0.50;0.30;;;23.80;39.70;;;;;;4953829;29;20446;-73
2023/04/04 08:21:05;;;;;;;0.50;0.30;;;23.70;39.50;;;;;;4953514;29;20857;-75
2023/04/04 08:23:32;;;;;;;0.80;0.53;;;24.40;39.00;;;;;;4953533;28;20556;-73
2023/04/04 08:25:59;;;;;;;0.50;0.40;;;24.60;40.80;;;;;;4953824;29;20442;-76
2023/04/04 08:28:26;;;;;;;0.50;0.40;;;25.00;38.00;;;;;;4953971;29;20945;-74
2023/04/04 08:30:53;;;;;;;0.50;0.30;;;24.80;37.90;;;;;;4953580;29;20482;-74
2023/04/04 08:33:23;;;;;;;0.50;0.30;;;24.40;36.00;;;;;;4953702;28;21027;-75
2023/04/04 08:35:50;;;;;;;1.37;0.60;;;24.50;37.00;;;;;;4953115;29;20944;-75
2023/04/04 08:38:17;;;;;;;0.50;0.40;;;24.20;36.50;;;;;;4953730;29;20560;-75
2023/04/04 08:40:46;;;;;;;0.90;0.50;;;24.00;36.50;;;;;;4953646;29;20465;-76
2023/04/04 08:43:14;;;;;;;0.70;0.40;;;22.90;36.10;;;;;;4953168;28;20969;-77
2023/04/04 08:45:43;;;;;;;0.50;0.40;;;22.20;36.20;;;;;;4953053;29;20445;-77
2023/04/04 08:48:11;;;;;;;0.50;0.40;;;22.00;38.50;;;;;;4953585;29;20451;-76
2023/04/04 08:50:40;;;;;;;0.50;0.40;;;22.00;39.50;;;;;;4953144;28;20489;-76
2023/04/04 08:53:09;;;;;;;0.50;0.30;;;22.50;40.00;;;;;;4953430;28;20592;-75
2023/04/04 08:55:36;;;;;;;0.60;0.40;;;23.40;38.70;;;;;;4952812;29;20957;-74
2023/04/04 08:58:03;;;;;;;0.50;0.30;;;23.60;37.70;;;;;;4953769;29;20593;-74
2023/04/04 09:00:30;;;;;;;0.50;0.40;;;23.30;37.70;;;;;;4953331;28;20457;-75
2023/04/04 09:03:04;;;;;;;0.50;0.30;;;23.40;36.90;;;;;;4952716;28;20476;-76
2023/04/04 09:05:32;;;;;;;0.50;0.40;;;23.30;36.70;;;;;;4953075;29;20457;-75
2023/04/04 09:08:01;;;;;;;0.50;0.30;;;22.90;36.90;;;;;;4945057;29;20445;-77
2023/04/04 09:10:28;;;;;;;0.50;0.40;;;22.10;36.80;;;;;;4953610;29;20485;-77
2023/04/04 09:12:56;;;;;;;4.30;0.77;;;22.00;37.80;;;;;;4953136;28;20472;-77
2023/04/04 09:15:23;;;;;;;0.50;0.40;;;21.80;39.60;;;;;;4952897;29;20445;-77
2023/04/04 09:17:50;;;;;;;0.50;0.30;;;22.10;38.30;;;;;;4953101;29;20454;-76
2023/04/04 09:20:40;;;;;;;0.50;0.30;;;22.30;38.00;;;;;;4952880;29;20449;-77
2023/04/04 09:23:10;;;;;;;0.50;0.30;;;22.40;38.80;;;;;;4946110;29;20461;-74
2023/04/04 09:25:38;;;;;;;0.50;0.30;;;22.60;38.90;;;;;;4952457;29;20446;-74
2023/04/04 09:28:05;;;;;;;0.50;0.37;;;23.20;39.50;;;;;;4952850;29;20817;-75
2023/04/04 09:30:33;;;;;;;0.50;0.30;;;23.20;38.20;;;;;;4953043;29;20528;-77
2023/04/04 09:33:02;;;;;;;0.50;0.30;;;23.40;39.10;;;;;;4944812;29;20492;-77
2023/04/04 09:35:29;;;;;;;1.00;0.50;;;22.90;37.10;;;;;;4952535;29;20453;-76
2023/04/04 09:37:56;;;;;;;0.50;0.40;;;22.20;36.40;;;;;;4952672;29;20813;-76
2023/04/04 09:40:27;;;;;;;0.50;0.40;;;22.00;36.90;;;;;;4953131;29;20441;-76
2023/04/04 09:42:55;;;;;;;2.43;2.20;;;21.70;37.00;;;;;;4952867;28;20892;-77
2023/04/04 09:45:25;;;;;;;0.60;0.40;;;21.50;37.30;;;;;;4952686;29;20448;-77
2023/04/04 09:47:52;;;;;;;0.50;0.40;;;21.00;40.70;;;;;;4952736;29;20536;-76
2023/04/04 09:50:22;;;;;;;0.50;0.40;;;21.20;40.80;;;;;;4952768;29;20482;-77
2023/04/04 09:52:49;;;;;;;0.50;0.40;;;21.90;39.70;;;;;;4952303;28;21046;-77
2023/04/04 09:55:16;;;;;;;0.50;0.40;;;22.60;40.30;;;;;;4952398;29;20508;-75
2023/04/04 09:57:46;;;;;;;0.50;0.30;;;23.10;38.90;;;;;;4952680;29;20498;-77
2023/04/04 10:00:20;;;;;;;0.50;0.30;;;23.50;39.60;;;;;;4953092;29;20548;-75
2023/04/04 10:02:48;;;;;;;0.50;0.30;;;23.70;36.60;;;;;;4952506;28;20474;-76
2023/04/04 10:05:16;;;;;;;0.50;0.30;;;23.00;36.80;;;;;;4952341;29;20481;-77
2023/04/04 10:07:46;;;;;;;0.87;0.80;;;23.10;37.90;;;;;;4952531;29;20960;-76
2023/04/04 10:10:15;;;;;;;0.50;0.30;;;22.50;37.50;;;;;;4953092;29;20532;-74
2023/04/04 10:12:47;;;;;;;0.80;0.40;;;22.30;37.70;;;;;;4952330;28;20732;-77
2023/04/04 10:15:16;;;;;;;0.50;0.40;;;22.20;38.10;;;;;;4952305;29;20449;-75
2023/04/04 10:17:46;;;;;;;0.50;0.40;;;21.90;36.30;;;;;;4952158;29;20442;-74
2023/04/04 10:20:13;;;;;;;0.50;0.37;;;21.80;40.30;;;;;;4955690;28;20942;-75
2023/04/04 10:22:40;;;;;;;5.80;1.07;;;22.00;38.70;;;;;;4956488;28;20473;-74
2023/04/04 10:25:09;;;;;;;0.50;0.30;;;21.90;37.20;;;;;;4956036;29;20453;-75
2023/04/04 10:27:37;;;;;;;0.50;0.30;;;22.00;39.50;;;;;;4956081;29;20500;-76
2023/04/04 10:30:07;;;;;;;0.67;0.40;;;22.60;38.30;;;;;;4956024;29;20484;-76
2023/04/04 10:32:44;;;;;;;0.97;0.40;;;22.80;37.10;;;;;;4955950;28;20576;-75
2023/04/04 10:35:12;;;;;;;1.03;0.50;;;21.60;35.30;;;;;;4948871;29;20810;-75
2023/04/04 10:37:44;;;;;;;0.50;0.30;;;21.10;36.10;;;;;;4955707;29;20452;-75
2023/04/04 10:40:15;;;;;;;0.50;0.30;;;21.30;37.20;;;;;;4955790;29;20442;-76
2023/04/04 10:42:44;;;;;;;0.50;0.40;;;22.00;40.80;;;;;;4955806;28;20471;-75
2023/04/04 10:45:15;;;;;;;0.50;0.40;;;22.30;39.60;;;;;;4955327;29;20497;-75
2023/04/04 10:47:43;;;;;;;0.50;0.40;;;23.00;39.60;;;;;;4955703;29;20481;-74
2023/04/04 10:50:11;;;;;;;0.50;0.40;;;23.70;39.30;;;;;;4955525;29;20477;-76
2023/04/04 10:52:40;;;;;;;0.50;0.30;;;23.80;39.70;;;;;;4955281;28;20469;-76
2023/04/04 10:55:11;;;;;;;0.50;0.30;;;23.10;36.60;;;;;;4948068;29;20442;-76
2023/04/04 10:57:41;;;;;;;0.50;0.30;;;23.30;37.00;;;;;;4955634;29;20520;-75
2023/04/04 11:00:10;;;;;;;0.50;0.30;;;23.30;37.80;;;;;;4948277;29;20513;-76
2023/04/04 11:02:50;;;;;;;0.50;0.30;;;23.70;36.50;;;;;;4955311;28;20830;-76
2023/04/04 11:05:22;;;;;;;0.50;0.30;;;23.60;38.20;;;;;;4948761;29;20945;-76
2023/04/04 11:07:54;;;;;;;0.50;0.30;;;23.50;36.70;;;;;;4955230;29;20868;-76
2023/04/04 11:10:25;;;;;;;0.57;0.57;;;23.10;36.40;;;;;;4954742;29;20485;-76
2023/04/04 11:12:57;;;;;;;1.43;0.87;;;22.20;36.60;;;;;;4955021;28;20468;-76
2023/04/04 11:15:26;;;;;;;0.50;0.40;;;22.20;38.50;;;;;;4955011;29;20441;-76
2023/04/04 11:17:58;;;;;;;0.50;0.30;;;22.60;40.00;;;;;;4954429;29;20488;-76
2023/04/04 11:20:30;;;;;;;1.07;0.97;;;23.00;37.30;;;;;;4954821;29;20466;-76
2023/04/04 11:23:18;;;;;;;1.13;0.73;;;23.30;39.20;;;;;;4954009;29;20556;-77
2023/04/04 11:25:51;;;;;;;0.50;0.50;;;23.80;37.80;;;;;;4954377;29;20453;-76
2023/04/04 11:28:43;;;;;;;0.50;0.40;;;23.20;36.70;;;;;;4954897;29;20496;-76
2023/04/04 11:31:24;;;;;;;0.60;0.60;;;22.90;37.50;;;;;;4945582;28;20512;-76
2023/04/04 11:33:57;;;;;;;0.50;0.40;;;23.60;40.00;;;;;;4947823;28;20518;-75
2023/04/04 11:36:44;;;;;;;0.50;0.40;;;22.60;36.40;;;;;;4954614;29;20446;-75
2023/04/04 11:39:15;;;;;;;0.63;0.57;;;22.40;38.10;;;;;;4947483;29;20540;-76
2023/04/04 11:41:49;;;;;;;0.50;0.30;;;23.00;37.90;;;;;;4949128;28;20449;-76
2023/04/04 11:44:17;;;;;;;0.50;0.30;;;23.20;38.40;;;;;;4948021;29;20848;-76
2023/04/04 11:46:45;;;;;;;0.50;0.30;;;23.30;38.10;;;;;;4954327;29;20442;-75
2023/04/04 11:49:14;;;;;;;0.50;0.30;;;23.80;37.00;;;;;;4954360;29;20549;-74
2023/04/04 11:51:41;;;;;;;0.50;0.30;;;23.00;36.40;;;;;;4954748;28;20568;-76
2023/04/04 11:54:14;;;;;;;0.90;0.90;;;22.90;38.00;;;;;;4954412;28;20449;-75
2023/04/04 11:56:43;;;;;;;0.50;0.30;;;22.70;37.60;;;;;;4954396;29;20541;-76
2023/04/04 11:59:11;;;;;;;0.50;0.47;;;22.50;36.30;;;;;;4954438;29;20456;-76
2023/04/04 12:01:38;;;;;;;0.50;0.40;;;22.90;39.00;;;;;;4954292;28;20450;-76
2023/04/04 12:04:05;;;;;;;0.93;0.93;;;22.40;37.50;;;;;;4954031;29;20488;-74
2023/04/04 12:06:34;;;;;;;0.50;0.30;;;22.40;38.50;;;;;;4954099;29;20571;-77
2023/04/04 12:09:02;;;;;;;0.97;0.70;;;23.00;39.40;;;;;;4954284;29;20445;-75
2023/04/04 12:11:30;;;;;;;0.90;0.80;;;22.50;37.60;;;;;;4954127;28;20488;-76
2023/04/04 12:13:57;;;;;;;0.50;0.30;;;22.60;38.70;;;;;;4954027;29;20450;-75
2023/04/04 12:16:24;;;;;;;0.60;0.40;;;23.00;38.50;;;;;;4953727;29;20452;-76
2023/04/04 12:18:52;;;;;;;0.60;0.47;;;23.20;37.80;;;;;;4954034;29;20445;-76
2023/04/04 12:21:19;;;;;;;3.53;1.10;;;21.70;36.40;;;;;;4953798;29;20511;-76
2023/04/04 12:23:48;;;;;;;0.50;0.30;;;21.90;39.00;;;;;;4953893;28;20465;-75
2023/04/04 12:26:16;;;;;;;0.50;0.30;;;22.00;38.20;;;;;;4953762;29;20448;-76
2023/04/04 12:28:44;;;;;;;0.50;0.30;;;22.50;39.70;;;;;;4954085;29;20845;-75
2023/04/04 12:31:12;;;;;;;0.50;0.30;;;22.70;39.00;;;;;;4945834;29;21196;-76
2023/04/04 12:33:41;;;;;;;0.50;0.30;;;22.40;36.40;;;;;;4953701;28;20959;-75
2023/04/04 12:36:08;;;;;;;0.90;0.70;;;21.70;37.10;;;;;;4953947;29;20481;-75
2023/04/04 12:41:34;;;;;;;0.60;0.50;;;21.20;38.60;;;;;;5093060;27;1288835;-75
2023/04/04 12:44:02;;;;;;;0.50;0.30;;;20.60;37.50;;;;;;5127523;28;20444;-76
2023/04/04 12:46:35;;;;;;;0.50;0.30;;;20.30;39.20;;;;;;5129367;28;20773;-77
2023/04/04 12:49:03;;;;;;;0.50;0.33;;;20.30;38.80;;;;;;5129327;28;20797;-76
2023/04/04 12:51:33;;;;;;;0.50;0.30;;;20.40;37.50;;;;;;5129282;28;20429;-76
2023/04/04 12:54:00;;;;;;;0.50;0.30;;;19.90;37.40;;;;;;5122765;28;20446;-77
2023/04/04 12:56:27;;;;;;;3.90;3.13;;;19.60;39.90;;;;;;5122036;28;20438;-76